Time;durP1;ratioP1;P1;durP2;ratioP2;P2;SDS_P1;SDS_P2;PMS_P1;PMS_P2;Temp;Humidity;BMP_temperature;BMP_pressure;BME280_temperature;BME280_humidity;BME280_pressure;Samples;Min_cycle;Max_cycle;Signal;HPM_P1;HPM_P2
2022/10/14 00:00:34;;;;;;;12.10;4.63;;;;;;;-141.28;100.00;50153.56;5133268;27;20206;-80
2022/10/14 00:03:02;;;;;;;8.33;4.33;;;;;;;-141.28;100.00;50106.47;5133608;27;20198;-78
2022/10/14 00:05:32;;;;;;;7.70;3.93;;;;;;;-141.28;100.00;50082.91;5133166;27;20198;-77
2022/10/14 00:08:01;;;;;;;9.00;4.00;;;;;;;-141.28;100.00;50039.72;5132318;27;20233;-78
2022/10/14 00:10:31;;;;;;;6.47;3.77;;;;;;;-141.28;100.00;50027.97;5134338;27;20248;-76
2022/10/14 00:12:58;;;;;;;4.70;3.30;;;;;;;-141.28;100.00;50004.41;5136303;28;20217;-77
2022/10/14 00:15:25;;;;;;;10.93;5.30;;;;;;;-141.28;100.00;49992.63;5132434;28;20202;-77
2022/10/14 00:18:00;;;;;;;23.33;7.00;;;;;;;-141.28;100.00;49953.38;5132619;28;20213;-81
2022/10/14 00:20:28;;;;;;;27.67;8.53;;;;;;;-141.28;100.00;49969.06;5132951;28;20255;-78
2022/10/14 00:22:57;;;;;;;36.03;8.50;;;;;;;-141.28;100.00;49914.13;5132278;28;20630;-80
2022/10/14 00:25:25;;;;;;;21.63;6.07;;;;;;;-141.28;100.00;49861.13;5132322;28;20202;-77
2022/10/14 00:27:52;;;;;;;23.87;7.10;;;;;;;-141.28;100.00;49874.88;5132685;28;20373;-80
2022/10/14 00:30:19;;;;;;;18.83;5.80;;;;;;;-141.28;100.00;49827.78;5132765;28;20222;-77
2022/10/14 00:32:50;;;;;;;15.00;5.90;;;;;;;-141.28;100.00;49794.41;5132669;28;20685;-77
2022/10/14 00:35:17;;;;;;;14.87;6.17;;;;;;;-141.28;100.00;49764.97;5131013;28;20198;-76
2022/10/14 00:37:44;;;;;;;10.90;4.20;;;;;;;-141.28;100.00;49712.00;5132368;28;20209;-77
2022/10/14 00:40:13;;;;;;;9.83;3.80;;;;;;;-141.28;100.00;49710.03;5131989;28;20209;-78
2022/10/14 00:42:40;;;;;;;5.57;3.10;;;;;;;-141.28;100.00;49729.66;5132459;28;20190;-79
2022/10/14 00:45:15;;;;;;;7.73;3.87;;;;;;;-141.28;100.00;49712.00;5132254;28;20202;-78
2022/10/14 00:47:44;;;;;;;18.43;5.17;;;;;;;-141.28;100.00;49666.84;5132974;28;20190;-76
2022/10/14 00:50:14;;;;;;;15.20;4.93;;;;;;;-141.28;100.00;49690.41;5133453;27;20209;-75
2022/10/14 00:52:42;;;;;;;19.80;5.17;;;;;;;-141.28;100.00;49710.03;5136914;27;20198;-77
2022/10/14 00:55:18;;;;;;;17.00;6.10;;;;;;;-141.28;100.00;49662.94;5141019;27;20216;-74
2022/10/14 00:57:50;;;;;;;12.90;4.60;;;;;;;-141.28;100.00;49662.94;5146699;27;20230;-75
2022/10/14 01:00:19;;;;;;;7.17;3.47;;;;;;;-141.28;100.00;49662.94;5139913;27;20206;-77
2022/10/14 01:02:48;;;;;;;8.13;3.60;;;;;;;-141.28;100.00;49637.41;5136144;27;20203;-76
2022/10/14 01:05:17;;;;;;;7.53;3.00;;;;;;;-141.28;100.00;49562.84;5135939;27;20198;-78
2022/10/14 01:07:55;;;;;;;9.57;4.00;;;;;;;-141.28;100.00;49604.06;5135876;27;20727;-80
2022/10/14 01:10:33;;;;;;;7.73;3.33;;;;;;;-141.28;100.00;49592.28;5115459;28;20227;-77
2022/10/14 01:13:14;;;;;;;7.43;2.47;;;;;;;-141.28;100.00;49568.75;5131946;27;20233;-77
2022/10/14 01:15:48;;;;;;;3.73;1.80;;;;;;;-141.28;100.00;49572.66;5137102;27;20284;-76
2022/10/14 01:18:29;;;;;;;3.40;1.80;;;;;;;-141.28;100.00;49574.63;5136061;27;20205;-78
2022/10/14 01:21:08;;;;;;;4.57;1.67;;;;;;;-141.28;100.00;49588.34;5138687;27;20193;-77
2022/10/14 01:23:52;;;;;;;5.63;2.57;;;;;;;-141.28;100.00;49568.75;5135775;27;20198;-80
2022/10/14 01:26:44;;;;;;;15.97;7.13;;;;;;;-141.28;100.00;49572.66;5135685;27;20190;-80
2022/10/14 01:29:23;;;;;;;20.03;8.00;;;;;;;-141.28;100.00;49556.97;5135242;27;20205;-79
2022/10/14 01:32:02;;;;;;;15.77;6.40;;;;;;;-141.28;100.00;49533.41;5135599;27;20225;-76
2022/10/14 01:34:36;;;;;;;12.60;4.20;;;;;;;-141.28;100.00;49470.63;5135447;27;20194;-78
2022/10/14 01:37:08;;;;;;;5.23;2.73;;;;;;;-141.28;100.00;49451.00;5135552;27;20202;-79
2022/10/14 01:39:41;;;;;;;10.10;3.17;;;;;;;-141.28;100.00;49431.38;5135734;27;20191;-79
2022/10/14 01:42:11;;;;;;;6.13;2.60;;;;;;;-141.28;100.00;49429.41;5135660;27;20198;-82
2022/10/14 01:44:43;;;;;;;6.67;2.27;;;;;;;-141.28;100.00;49409.78;5136153;27;20209;-79
2022/10/14 01:47:15;;;;;;;3.17;2.10;;;;;;;-141.28;100.00;49415.69;5135164;27;20198;-76
2022/10/14 01:49:48;;;;;;;3.40;1.73;;;;;;;-141.28;100.00;49407.84;5134980;27;20622;-80
2022/10/14 01:52:21;;;;;;;6.93;2.10;;;;;;;-141.28;100.00;49378.41;5134878;27;20294;-77
2022/10/14 01:54:52;;;;;;;6.77;1.90;;;;;;;-141.28;100.00;49372.50;5135123;27;20202;-81
2022/10/14 01:57:24;;;;;;;2.20;1.50;;;;;;;-141.28;100.00;49352.88;5122606;27;20234;-78
2022/10/14 01:59:52;;;;;;;1.50;1.40;;;;;;;-141.28;100.00;49360.75;5135876;27;20198;-76
2022/10/14 02:02:21;;;;;;;6.57;1.70;;;;;;;-141.28;100.00;49352.88;5134599;27;20571;-78
2022/10/14 02:04:49;;;;;;;2.60;1.57;;;;;;;-141.28;100.00;49331.31;5135000;27;20210;-79
2022/10/14 02:07:20;;;;;;;3.97;1.50;;;;;;;-141.28;100.00;49341.13;5134665;27;20241;-78
2022/10/14 02:09:55;;;;;;;3.60;1.77;;;;;;;-141.28;100.00;49303.84;5134728;27;20738;-77
2022/10/14 02:12:34;;;;;;;2.43;1.33;;;;;;;-141.28;100.00;49358.78;5135143;27;20231;-77
2022/10/14 02:15:13;;;;;;;2.77;1.47;;;;;;;-141.28;100.00;49352.88;5134759;27;20209;-76
2022/10/14 02:17:52;;;;;;;2.00;1.50;;;;;;;-141.28;100.00;49364.66;5134945;27;20202;-77
2022/10/14 02:20:31;;;;;;;1.77;1.33;;;;;;;-141.28;100.00;49360.75;5134972;27;20194;-77
2022/10/14 02:23:01;;;;;;;1.83;1.53;;;;;;;-141.28;100.00;49331.31;5134600;27;20205;-76
2022/10/14 02:25:32;;;;;;;2.27;1.50;;;;;;;-141.28;100.00;49317.56;5134971;27;20229;-75
2022/10/14 02:28:00;;;;;;;4.07;1.50;;;;;;;-141.28;100.00;49325.41;5134716;27;20668;-77
2022/10/14 02:30:31;;;;;;;1.60;1.20;;;;;;;-141.28;100.00;49329.34;5134461;27;20198;-77
2022/10/14 02:33:01;;;;;;;2.40;1.40;;;;;;;-141.28;100.00;49319.53;5134554;27;20202;-77
2022/10/14 02:35:31;;;;;;;2.20;1.60;;;;;;;-141.28;100.00;49305.78;5134181;27;20584;-76
2022/10/14 02:37:59;;;;;;;6.30;2.97;;;;;;;-141.28;100.00;49313.66;5134453;27;20199;-77
2022/10/14 02:40:30;;;;;;;5.83;2.03;;;;;;;-141.28;100.00;49333.25;5134402;27;20199;-80
2022/10/14 02:43:00;;;;;;;4.30;2.63;;;;;;;-141.28;100.00;49345.03;5138614;27;20208;-75
2022/10/14 02:45:28;;;;;;;2.63;1.60;;;;;;;-141.28;100.00;49341.13;5142150;27;20199;-75
2022/10/14 02:47:57;;;;;;;3.10;1.60;;;;;;;-141.28;100.00;49347.00;5142316;27;20220;-75
2022/10/14 02:50:25;;;;;;;2.33;1.57;;;;;;;-141.28;100.00;49374.47;5141281;27;20202;-75
2022/10/14 02:52:52;;;;;;;6.53;2.90;;;;;;;-141.28;100.00;49335.22;5137027;27;20230;-76
2022/10/14 02:55:19;;;;;;;5.47;2.60;;;;;;;-141.28;100.00;49337.19;5135954;27;20209;-78
2022/10/14 02:57:47;;;;;;;10.23;3.33;;;;;;;-141.28;100.00;49348.97;5136648;27;20279;-78
2022/10/14 03:00:15;;;;;;;11.60;3.40;;;;;;;-141.28;100.00;49329.34;5138947;27;20646;-77
2022/10/14 03:02:42;;;;;;;11.60;3.00;;;;;;;-141.28;100.00;49345.03;5138883;27;20206;-79
2022/10/14 03:05:09;;;;;;;4.50;1.80;;;;;;;-141.28;100.00;49337.19;5136014;27;20606;-78
2022/10/14 03:07:38;;;;;;;8.87;2.37;;;;;;;-141.28;100.00;49358.78;5135374;27;20238;-77
2022/10/14 03:10:05;;;;;;;7.40;2.20;;;;;;;-141.28;100.00;49313.66;5136654;27;20194;-77
2022/10/14 03:12:33;;;;;;;2.93;1.40;;;;;;;-141.28;100.00;49345.03;5133813;27;20234;-78
2022/10/14 03:15:00;;;;;;;4.83;1.70;;;;;;;-141.28;100.00;49350.94;5132709;27;20198;-78
2022/10/14 03:17:26;;;;;;;2.43;2.00;;;;;;;-141.28;100.00;49364.66;5133726;27;20202;-78
2022/10/14 03:19:54;;;;;;;8.93;3.53;;;;;;;-141.28;100.00;49364.66;5133501;27;20202;-78
2022/10/14 03:22:21;;;;;;;7.10;4.03;;;;;;;-141.28;100.00;49356.81;5133629;27;20210;-78
2022/10/14 03:24:49;;;;;;;4.23;2.50;;;;;;;-141.28;100.00;49364.66;5135536;27;20209;-78
2022/10/14 03:27:16;;;;;;;4.40;2.40;;;;;;;-141.28;100.00;49356.81;5133201;27;20195;-76
2022/10/14 03:29:43;;;;;;;5.70;2.47;;;;;;;-141.28;100.00;49329.34;5133301;27;20194;-80
2022/10/14 03:32:10;;;;;;;4.97;2.73;;;;;;;-141.28;100.00;49362.69;5132552;27;20310;-79
2022/10/14 03:34:37;;;;;;;5.07;2.57;;;;;;;-141.28;100.00;49372.50;5133170;27;20198;-77
2022/10/14 03:37:04;;;;;;;7.90;3.57;;;;;;;-141.28;100.00;49356.81;5134347;27;20568;-78
2022/10/14 03:39:31;;;;;;;5.60;2.00;;;;;;;-141.28;100.00;49360.75;5133805;27;20198;-76
2022/10/14 03:42:00;;;;;;;3.27;2.17;;;;;;;-141.28;100.00;49368.59;5133406;27;20289;-76
2022/10/14 03:44:27;;;;;;;8.90;2.83;;;;;;;-141.28;100.00;49362.69;5131977;27;20205;-77
2022/10/14 03:46:55;;;;;;;11.50;3.70;;;;;;;-141.28;100.00;49366.63;5133346;27;20198;-81
2022/10/14 03:49:23;;;;;;;7.10;3.00;;;;;;;-141.28;100.00;49364.66;5133329;27;20198;-77
2022/10/14 03:51:50;;;;;;;6.27;2.30;;;;;;;-141.28;100.00;49294.03;5133431;27;20283;-77
2022/10/14 03:54:17;;;;;;;2.20;1.50;;;;;;;-141.28;100.00;49364.66;5133722;27;20202;-81
2022/10/14 03:56:46;;;;;;;4.53;2.00;;;;;;;-141.28;100.00;49358.78;5140289;27;20717;-76
2022/10/14 03:59:14;;;;;;;2.27;1.60;;;;;;;-141.28;100.00;49364.66;5145551;27;20208;-76
2022/10/14 04:01:42;;;;;;;2.30;1.83;;;;;;;-141.28;100.00;49360.75;5138345;27;20586;-77
2022/10/14 04:04:10;;;;;;;1.80;1.47;;;;;;;-141.28;100.00;49358.78;5134097;27;20206;-77
2022/10/14 04:06:37;;;;;;;7.90;1.90;;;;;;;-141.28;100.00;49368.59;5132558;27;20667;-77
2022/10/14 04:09:05;;;;;;;3.13;1.70;;;;;;;-141.28;100.00;49384.28;5132687;27;20293;-79
2022/10/14 04:11:32;;;;;;;3.90;1.80;;;;;;;-141.28;100.00;49388.22;5132333;27;20261;-76
2022/10/14 04:13:59;;;;;;;5.37;1.80;;;;;;;-141.28;100.00;49356.81;5133115;27;20285;-77
2022/10/14 04:16:28;;;;;;;7.67;3.13;;;;;;;-141.28;100.00;49350.94;5133646;28;20198;-79
2022/10/14 04:18:55;;;;;;;11.17;5.53;;;;;;;-141.28;100.00;49345.03;5133362;28;20309;-76
2022/10/14 04:21:22;;;;;;;7.70;4.97;;;;;;;-141.28;100.00;49378.41;5132773;28;20229;-75
2022/10/14 04:23:51;;;;;;;20.67;7.47;;;;;;;-141.28;100.00;49374.47;5132880;28;20203;-79
2022/10/14 04:26:18;;;;;;;16.73;6.30;;;;;;;-141.28;100.00;49386.25;5135239;27;20194;-78
2022/10/14 04:28:47;;;;;;;12.17;4.50;;;;;;;-141.28;100.00;49388.22;5137222;27;20255;-79
2022/10/14 04:31:14;;;;;;;10.13;4.10;;;;;;;-141.28;100.00;49396.06;5123889;27;20206;-77
2022/10/14 04:33:44;;;;;;;12.00;5.57;;;;;;;-141.28;100.00;49386.25;5136891;27;20198;-76
2022/10/14 04:36:13;;;;;;;12.67;4.10;;;;;;;-141.28;100.00;49376.44;5136349;27;20202;-76
2022/10/14 04:38:40;;;;;;;12.83;4.10;;;;;;;-141.28;100.00;49372.50;5136851;27;20206;-76
2022/10/14 04:41:07;;;;;;;13.80;3.47;;;;;;;-141.28;100.00;49380.34;5136340;27;20198;-76
2022/10/14 04:43:34;;;;;;;9.93;3.80;;;;;;;-141.28;100.00;49368.59;5136309;27;20225;-76
2022/10/14 04:46:01;;;;;;;14.63;3.13;;;;;;;-141.28;100.00;49372.50;5136444;27;20208;-77
2022/10/14 04:48:28;;;;;;;15.43;3.30;;;;;;;-141.28;100.00;49368.59;5136563;27;20691;-76
2022/10/14 04:50:56;;;;;;;7.00;2.30;;;;;;;-141.28;100.00;49368.59;5129122;27;20226;-77
2022/10/14 04:53:24;;;;;;;5.90;2.90;;;;;;;-141.28;100.00;49370.53;5130757;27;20727;-78
2022/10/14 04:55:52;;;;;;;11.20;4.00;;;;;;;-141.28;100.00;49337.19;5135719;27;20202;-77
2022/10/14 04:58:18;;;;;;;12.50;2.67;;;;;;;-141.28;100.00;49358.78;5136568;27;20230;-77
2022/10/14 05:00:47;;;;;;;11.20;2.43;;;;;;;-141.28;100.00;49356.81;5137112;27;20222;-77
2022/10/14 05:03:14;;;;;;;8.30;2.27;;;;;;;-141.28;100.00;49376.44;5136781;27;20668;-75
2022/10/14 05:05:41;;;;;;;8.07;2.30;;;;;;;-141.28;100.00;49392.13;5137191;27;20281;-77
2022/10/14 05:08:09;;;;;;;10.70;2.37;;;;;;;-141.28;100.00;49388.22;5137736;27;20639;-77
2022/10/14 05:10:36;;;;;;;6.87;2.77;;;;;;;-141.28;100.00;49423.53;5136791;27;20702;-76
2022/10/14 05:13:03;;;;;;;9.73;2.77;;;;;;;-141.28;100.00;49423.53;5136285;27;20301;-77
2022/10/14 05:15:30;;;;;;;9.30;2.40;;;;;;;-141.28;100.00;49439.22;5135867;27;20207;-76
2022/10/14 05:17:58;;;;;;;10.33;2.80;;;;;;;-141.28;100.00;49456.88;5135966;27;20206;-79
2022/10/14 05:20:24;;;;;;;10.07;2.73;;;;;;;-141.28;100.00;49482.41;5136107;27;20207;-76
2022/10/14 05:22:52;;;;;;;5.40;2.27;;;;;;;-141.28;100.00;49500.06;5136081;27;20225;-81
2022/10/14 05:25:20;;;;;;;14.10;2.37;;;;;;;-141.28;100.00;49537.34;5136410;27;20198;-80
2022/10/14 05:27:47;;;;;;;12.97;2.80;;;;;;;-141.28;100.00;49555.00;5136223;27;20206;-79
2022/10/14 05:30:14;;;;;;;9.27;2.30;;;;;;;-141.28;100.00;49551.06;5140590;27;20206;-78
2022/10/14 05:32:42;;;;;;;6.43;2.30;;;;;;;-141.28;100.00;49623.69;5135963;27;20604;-77
2022/10/14 05:35:10;;;;;;;12.03;2.27;;;;;;;-141.28;100.00;49678.63;5141268;27;20202;-76
2022/10/14 05:37:37;;;;;;;9.23;2.50;;;;;;;-141.28;100.00;49694.31;5128017;27;20225;-77
2022/10/14 05:40:05;;;;;;;6.10;2.10;;;;;;;-141.28;100.00;49731.63;5131038;27;20215;-76
2022/10/14 05:42:37;;;;;;;6.43;1.97;;;;;;;-141.28;100.00;49794.41;5145568;27;20227;-73
2022/10/14 05:45:04;;;;;;;10.47;3.57;;;;;;;-141.28;100.00;49870.94;5143625;27;20198;-75
2022/10/14 05:47:31;;;;;;;8.87;3.67;;;;;;;-141.28;100.00;49914.13;5144824;27;20202;-76
2022/10/14 05:50:01;;;;;;;10.37;3.37;;;;;;;-141.28;100.00;49918.06;5143852;27;20198;-76
2022/10/14 05:52:30;;;;;;;11.77;2.90;;;;;;;-141.28;100.00;49953.38;5135087;27;20735;-77
2022/10/14 05:54:59;;;;;;;8.53;2.67;;;;;;;-141.28;100.00;49957.31;5135831;27;20296;-77
2022/10/14 05:57:27;;;;;;;3.70;2.53;;;;;;;-141.28;100.00;49831.69;5129857;27;20242;-77
2022/10/14 05:59:55;;;;;;;6.77;2.60;;;;;;;-141.28;100.00;49819.94;5128134;27;20263;-76
2022/10/14 06:02:22;;;;;;;6.23;3.07;;;;;;;-141.28;100.00;49772.81;5135582;27;20255;-78
2022/10/14 06:04:50;;;;;;;5.97;3.47;;;;;;;-141.28;100.00;49755.16;5139609;27;20202;-76
2022/10/14 06:07:18;;;;;;;7.57;3.20;;;;;;;-141.28;100.00;49725.72;5138991;27;20248;-77
2022/10/14 06:09:45;;;;;;;5.50;3.07;;;;;;;-141.28;100.00;49698.25;5134880;27;20226;-76
2022/10/14 06:12:12;;;;;;;6.60;2.97;;;;;;;-141.28;100.00;49692.38;5134554;27;20222;-76
2022/10/14 06:14:39;;;;;;;13.57;3.37;;;;;;;-141.28;100.00;49686.47;5135014;27;20198;-75
2022/10/14 06:17:08;;;;;;;3.50;3.00;;;;;;;-141.28;100.00;49690.41;5121266;27;20857;-78
2022/10/14 06:19:36;;;;;;;7.17;3.80;;;;;;;-141.28;100.00;49678.63;5135045;27;20205;-76
2022/10/14 06:22:03;;;;;;;6.60;3.20;;;;;;;-141.28;100.00;49670.78;5134712;27;20222;-76
2022/10/14 06:24:30;;;;;;;7.73;3.47;;;;;;;-141.28;100.00;49713.94;5134744;27;20202;-75
2022/10/14 06:26:57;;;;;;;7.37;3.90;;;;;;;-141.28;100.00;49745.34;5133629;27;20198;-78
2022/10/14 06:29:30;;;;;;;7.87;3.83;;;;;;;-141.28;100.00;49749.28;5134439;27;20202;-76
2022/10/14 06:31:56;;;;;;;5.83;3.80;;;;;;;-141.28;100.00;49766.94;5134123;27;20570;-79
2022/10/14 06:34:25;;;;;;;10.57;4.00;;;;;;;-141.28;100.00;49808.16;5136934;27;20212;-76
2022/10/14 06:36:52;;;;;;;8.57;3.67;;;;;;;-141.28;100.00;49780.69;5119716;27;20198;-79
2022/10/14 06:39:20;;;;;;;5.93;3.27;;;;;;;-141.28;100.00;49792.44;5137020;27;20222;-77
2022/10/14 06:41:49;;;;;;;7.03;3.73;;;;;;;-141.28;100.00;49827.78;5135738;27;20218;-78
2022/10/14 06:44:17;;;;;;;6.30;3.40;;;;;;;-141.28;100.00;49855.25;5135836;27;20226;-79
2022/10/14 06:46:45;;;;;;;6.83;4.00;;;;;;;-141.28;100.00;49882.72;5134512;27;20699;-80
2022/10/14 06:49:12;;;;;;;13.23;3.90;;;;;;;-141.28;100.00;49882.72;5134243;27;20206;-77
2022/10/14 06:51:40;;;;;;;5.93;3.30;;;;;;;-141.28;100.00;49927.88;5134209;27;20206;-81
2022/10/14 06:54:08;;;;;;;4.40;3.03;;;;;;;-141.28;100.00;49965.16;5133773;27;20237;-77
2022/10/14 06:56:35;;;;;;;4.43;3.40;;;;;;;-141.28;100.00;49973.00;5133945;27;20246;-77
2022/10/14 06:59:02;;;;;;;3.87;3.43;;;;;;;-141.28;100.00;49988.69;5131312;27;20198;-77
2022/10/14 07:01:30;;;;;;;5.10;3.60;;;;;;;-141.28;100.00;49990.66;5134900;27;20652;-78
2022/10/14 07:03:57;;;;;;;8.07;3.30;;;;;;;-141.28;100.00;50020.09;5133752;27;20202;-77
2022/10/14 07:06:30;;;;;;;7.87;3.63;;;;;;;-141.28;100.00;50047.59;5115092;27;20313;-79
2022/10/14 07:08:59;;;;;;;7.43;3.90;;;;;;;-141.28;100.00;50094.69;5121376;27;20210;-77
2022/10/14 07:11:25;;;;;;;6.73;4.20;;;;;;;-141.28;100.00;50102.53;5133422;27;20289;-77
2022/10/14 07:13:55;;;;;;;9.13;3.60;;;;;;;-141.28;100.00;50120.19;5133679;27;20234;-77
2022/10/14 07:16:22;;;;;;;5.77;3.80;;;;;;;-141.28;100.00;50137.88;5133557;27;20569;-76
2022/10/14 07:18:50;;;;;;;5.93;3.93;;;;;;;-141.28;100.00;50124.13;5114983;27;20691;-79
2022/10/14 07:21:20;;;;;;;10.30;4.70;;;;;;;-141.28;100.00;50080.94;5133098;27;20210;-78
2022/10/14 07:23:47;;;;;;;11.20;4.23;;;;;;;-141.28;100.00;50082.91;5133751;27;20206;-78
2022/10/14 07:26:15;;;;;;;11.23;3.03;;;;;;;-141.28;100.00;50122.16;5133073;27;20198;-76
2022/10/14 07:28:42;;;;;;;11.43;4.07;;;;;;;-141.28;100.00;50153.56;5134253;27;20644;-77
2022/10/14 07:31:11;;;;;;;6.77;3.80;;;;;;;-141.28;100.00;50141.78;5133691;27;20209;-80
2022/10/14 07:33:40;;;;;;;6.33;3.90;;;;;;;-141.28;100.00;50184.97;5128168;27;20234;-76
2022/10/14 07:36:10;;;;;;;7.67;3.57;;;;;;;-141.28;100.00;50167.31;5133373;27;20653;-77
2022/10/14 07:38:38;;;;;;;5.10;3.50;;;;;;;-141.28;100.00;50196.75;5133184;27;20201;-76
2022/10/14 07:41:07;;;;;;;3.40;2.27;;;;;;;-141.28;100.00;50261.50;5133708;27;20202;-77
2022/10/14 07:43:36;;;;;;;5.33;3.80;;;;;;;-141.28;100.00;50249.75;5121887;27;20653;-78
2022/10/14 07:46:06;;;;;;;10.90;5.87;;;;;;;-141.28;100.00;50259.56;5126517;27;20258;-76
2022/10/14 07:48:34;;;;;;;6.03;4.60;;;;;;;-141.28;100.00;50290.97;5134515;27;20745;-77
2022/10/14 07:51:03;;;;;;;13.73;6.93;;;;;;;-141.28;100.00;50326.28;5134709;27;20198;-77
2022/10/14 07:53:31;;;;;;;8.60;4.47;;;;;;;-141.28;100.00;50369.47;5137851;27;20234;-78
2022/10/14 07:55:59;;;;;;;10.73;4.27;;;;;;;-141.28;100.00;50412.66;5114963;27;20210;-76
2022/10/14 07:58:28;;;;;;;7.80;5.20;;;;;;;-141.28;100.00;50424.44;5134566;27;20222;-77
2022/10/14 08:00:58;;;;;;;7.40;4.10;;;;;;;-141.28;100.00;50459.75;5133758;27;20668;-75
2022/10/14 08:03:26;;;;;;;6.47;3.73;;;;;;;-141.28;100.00;50487.25;5136132;27;20201;-80
2022/10/14 08:06:00;;;;;;;9.60;3.60;;;;;;;-141.28;100.00;50520.59;5135990;27;20206;-76
2022/10/14 08:08:29;;;;;;;4.53;3.17;;;;;;;-141.28;100.00;50538.28;5135114;27;20316;-76
2022/10/14 08:11:04;;;;;;;5.70;2.63;;;;;;;-141.28;100.00;50573.59;5135124;27;20213;-81
2022/10/14 08:13:32;;;;;;;7.33;2.87;;;;;;;-141.28;100.00;50624.63;5132783;27;20233;-81
2022/10/14 08:16:04;;;;;;;9.83;3.30;;;;;;;-141.28;100.00;50616.78;5132665;28;20656;-76
2022/10/14 08:18:32;;;;;;;9.47;3.13;;;;;;;-141.28;100.00;50644.28;5133200;28;20206;-79
2022/10/14 08:21:00;;;;;;;8.27;2.87;;;;;;;-141.28;100.00;50671.75;5132717;28;20206;-77
2022/10/14 08:23:29;;;;;;;8.40;2.60;;;;;;;-141.28;100.00;50671.75;5133691;28;20601;-79
2022/10/14 08:25:59;;;;;;;4.83;3.63;;;;;;;-141.28;100.00;50632.50;5132403;28;20727;-80
2022/10/14 08:28:26;;;;;;;4.93;2.10;;;;;;;-141.28;100.00;50608.94;5132665;28;20210;-76
2022/10/14 08:30:54;;;;;;;4.87;2.70;;;;;;;-141.28;100.00;50648.19;5132821;28;20692;-77
2022/10/14 08:33:27;;;;;;;4.33;2.40;;;;;;;-141.28;100.00;50714.94;5132639;28;20225;-79
2022/10/14 08:35:54;;;;;;;6.43;2.03;;;;;;;-141.28;100.00;50724.75;5133022;28;20194;-77
2022/10/14 08:38:24;;;;;;;6.23;1.90;;;;;;;-141.28;100.00;50734.56;5132539;28;20212;-77
2022/10/14 08:41:00;;;;;;;3.90;2.30;;;;;;;-141.28;100.00;50801.31;5133146;28;20198;-76
2022/10/14 08:43:32;;;;;;;3.33;2.40;;;;;;;-141.28;100.00;50905.34;5133292;28;20243;-78
2022/10/14 08:46:14;;;;;;;4.27;2.20;;;;;;;-141.28;100.00;50903.41;5133005;28;20238;-77
2022/10/14 08:48:43;;;;;;;3.87;1.93;;;;;;;-141.28;100.00;50981.91;5132884;28;20221;-77
2022/10/14 08:51:13;;;;;;;4.63;2.13;;;;;;;-141.28;100.00;50989.78;5132421;28;20222;-79
2022/10/14 08:53:44;;;;;;;7.90;2.33;;;;;;;-141.28;100.00;51009.41;5132122;28;20236;-77
2022/10/14 08:56:14;;;;;;;4.70;2.30;;;;;;;-141.28;100.00;50936.75;5132032;27;20210;-77
2022/10/14 08:58:43;;;;;;;2.57;2.23;;;;;;;-141.28;100.00;50962.28;5132196;27;20198;-80
2022/10/14 09:01:18;;;;;;;9.63;2.37;;;;;;;-141.28;100.00;50993.69;5133157;28;20202;-78
2022/10/14 09:03:46;;;;;;;5.13;2.13;;;;;;;-141.28;100.00;50974.06;5122637;28;20198;-77
2022/10/14 09:06:22;;;;;;;3.83;2.60;;;;;;;-141.28;100.00;51005.47;5131463;28;20203;-78
2022/10/14 09:08:50;;;;;;;4.93;2.70;;;;;;;-141.28;100.00;51005.47;5132232;28;20214;-78
2022/10/14 09:11:21;;;;;;;6.10;2.27;;;;;;;-141.28;100.00;51029.03;5132946;27;20604;-77
2022/10/14 09:13:51;;;;;;;8.60;2.60;;;;;;;-141.28;100.00;51070.25;5136758;27;20283;-79
2022/10/14 09:16:20;;;;;;;6.30;3.03;;;;;;;-141.28;100.00;51025.09;5132824;27;20199;-77
2022/10/14 09:18:52;;;;;;;5.00;2.57;;;;;;;-141.28;100.00;51021.19;5127070;27;20569;-76
2022/10/14 09:21:28;;;;;;;9.93;3.13;;;;;;;-141.28;100.00;51040.81;5136037;27;20194;-75
2022/10/14 09:24:00;;;;;;;3.67;2.90;;;;;;;-141.28;100.00;51029.03;5117462;27;20198;-80
2022/10/14 09:26:39;;;;;;;5.07;2.90;;;;;;;-141.28;100.00;50997.63;5136049;27;20195;-80
2022/10/14 09:29:16;;;;;;;3.30;2.50;;;;;;;-141.28;100.00;50897.50;5135094;27;20220;-78
2022/10/14 09:31:43;;;;;;;6.73;2.83;;;;;;;-141.28;100.00;50923.03;5135485;27;20205;-79
2022/10/14 09:34:16;;;;;;;6.77;3.20;;;;;;;-141.28;100.00;50974.06;5135752;27;20226;-76
2022/10/14 09:36:50;;;;;;;8.10;3.23;;;;;;;-141.28;100.00;51005.47;5135973;27;20210;-82
2022/10/14 09:39:17;;;;;;;10.23;2.83;;;;;;;-141.28;100.00;50946.59;5135829;27;20198;-77
2022/10/14 09:41:49;;;;;;;5.00;3.47;;;;;;;-141.28;100.00;50954.44;5123047;27;20612;-78
2022/10/14 09:44:22;;;;;;;5.90;3.20;;;;;;;-141.28;100.00;51076.16;5135443;27;20202;-79
2022/10/14 09:46:51;;;;;;;7.13;3.20;;;;;;;-141.28;100.00;51205.72;5135101;27;20209;-77
2022/10/14 09:49:27;;;;;;;6.07;3.00;;;;;;;-141.28;100.00;51209.66;5135761;27;20334;-76
2022/10/14 09:51:56;;;;;;;5.97;3.07;;;;;;;-141.28;100.00;51111.50;5135236;27;20200;-78
2022/10/14 09:54:26;;;;;;;6.07;3.13;;;;;;;-141.28;100.00;51068.28;5135157;27;20260;-76
2022/10/14 09:57:00;;;;;;;4.27;3.67;;;;;;;-141.28;100.00;51201.81;5121050;27;20699;-75
2022/10/14 09:59:29;;;;;;;4.87;2.67;;;;;;;-141.28;100.00;50934.81;5134855;27;20231;-79
2022/10/14 10:01:59;;;;;;;3.83;2.40;;;;;;;-141.28;100.00;50879.84;5134875;27;20217;-77
2022/10/14 10:04:34;;;;;;;7.80;3.30;;;;;;;-141.28;100.00;50987.81;5135155;27;20735;-80
2022/10/14 10:07:04;;;;;;;6.63;3.10;;;;;;;-141.28;100.00;50756.16;5121640;27;20286;-77
2022/10/14 10:09:31;;;;;;;4.17;3.00;;;;;;;-141.28;100.00;50679.59;5135096;27;20217;-78
2022/10/14 10:11:59;;;;;;;6.37;3.30;;;;;;;-141.28;100.00;50711.00;5134890;27;20199;-79
2022/10/14 10:14:28;;;;;;;9.00;3.50;;;;;;;-141.28;100.00;50514.72;5134312;27;20290;-77
2022/10/14 10:17:17;;;;;;;10.87;3.20;;;;;;;-141.28;100.00;50506.88;5135318;27;20198;-77
2022/10/14 10:19:50;;;;;;;3.63;3.20;;;;;;;-141.28;100.00;50477.44;5134959;27;20195;-76
2022/10/14 10:22:22;;;;;;;4.97;2.87;;;;;;;-141.28;100.00;50389.09;5134730;27;20591;-75
2022/10/14 10:24:51;;;;;;;3.20;2.40;;;;;;;-141.28;100.00;50298.81;5121657;27;20202;-79
2022/10/14 10:27:26;;;;;;;5.77;2.60;;;;;;;-141.28;100.00;50546.13;5134054;27;20206;-79
2022/10/14 10:30:15;;;;;;;5.83;2.70;;;;;;;-141.28;100.00;50518.66;5134892;27;20210;-77
2022/10/14 10:32:47;;;;;;;15.63;2.90;;;;;;;-141.28;100.00;50518.66;5134144;27;20282;-77
2022/10/14 10:35:22;;;;;;;3.60;2.70;;;;;;;-141.28;100.00;50514.72;5135368;27;20234;-76
2022/10/14 10:38:05;;;;;;;7.90;3.07;;;;;;;-141.28;100.00;50475.47;5134206;27;20212;-76
2022/10/14 10:40:38;;;;;;;6.00;3.13;;;;;;;-141.28;100.00;50520.59;5135341;27;20195;-77
2022/10/14 10:43:57;;;;;;;2.77;2.40;;;;;;;-141.28;100.00;50422.47;5140159;27;20198;-79
2022/10/14 10:46:40;;;;;;;5.67;2.40;;;;;;;-141.28;100.00;50447.97;5125699;27;20230;-78
2022/10/14 10:49:21;;;;;;;6.23;2.67;;;;;;;-141.28;100.00;50430.31;5132739;27;20733;-80
2022/10/14 10:51:56;;;;;;;2.27;1.80;;;;;;;-141.28;100.00;50342.00;5137773;27;20249;-79
2022/10/14 10:54:34;;;;;;;11.17;2.23;;;;;;;-141.28;100.00;50414.63;5137811;27;20234;-76
2022/10/14 10:57:08;;;;;;;8.23;2.20;;;;;;;-141.28;100.00;50216.38;5137759;27;20229;-77
2022/10/14 10:59:58;;;;;;;2.50;1.97;;;;;;;-141.28;100.00;50075.06;5129280;27;20206;-81
2022/10/14 11:02:59;;;;;;;3.93;1.93;;;;;;;-141.28;100.00;49969.06;5124073;27;20232;-77
2022/10/14 11:05:57;;;;;;;3.97;2.10;;;;;;;-141.28;100.00;50012.25;5133780;27;20557;-77
2022/10/14 11:12:05;;;;;;;7.63;1.77;;;;;;;-141.28;100.00;49796.38;5134305;27;20216;-77
2022/10/14 11:14:53;;;;;;;12.47;1.90;;;;;;;-141.28;100.00;49918.06;5120988;27;20222;-79
2022/10/14 11:17:29;;;;;;;6.17;1.70;;;;;;;-141.28;100.00;49870.94;5136988;27;20190;-77
2022/10/14 11:20:09;;;;;;;2.43;1.40;;;;;;;-141.28;100.00;49708.06;5138372;27;20216;-76
2022/10/14 11:22:51;;;;;;;7.77;1.53;;;;;;;-141.28;100.00;49566.78;5134295;27;20285;-77
2022/10/14 11:25:26;;;;;;;4.37;1.83;;;;;;;-141.28;100.00;49451.00;5120554;27;20198;-75